Time,TemperatureF,DewpointF,PressureIn,WindDirection,WindDirectionDegrees,WindSpeedMPH,WindSpeedGustMPH,Humidity,HourlyPrecipIn,Conditions,Clouds,dailyrainin,SoftwareType,DateUTC
2013-03-07 00:34:00,45.0,-99.9,-100.00,SSW,192,3.0,5.0,-999,-99.99,,,-99.99,,2013-03-07 08:34:00,
2013-03-07 00:45:00,45.0,-99.9,-100.00,SSW,192,3.0,5.0,-999,-99.99,,,-99.99,,2013-03-07 08:45:00,
2013-03-07 01:50:00,43.0,-99.9,-100.00,SW,225,2.0,3.0,-999,-99.99,,,-99.99,,2013-03-07 09:50:00,
2013-03-07 02:43:00,43.0,-99.9,-100.00,SW,225,2.0,3.0,-999,-99.99,,,-99.99,,2013-03-07 10:43:00,
2013-03-07 03:50:00,43.0,-99.9,-100.00,South,188,1.0,3.0,-999,-99.99,,,-99.99,,2013-03-07 11:50:00,
2013-03-07 04:34:00,43.0,-99.9,-100.00,South,188,1.0,3.0,-999,-99.99,,,-99.99,,2013-03-07 12:34:00,
2013-03-07 04:43:00,43.0,-99.9,-100.00,South,188,1.0,3.0,-999,-99.99,,,-99.99,,2013-03-07 12:43:00,
2013-03-07 05:50:00,43.0,-99.9,-100.00,SSW,207,0.0,1.0,-999,-99.99,,,-99.99,,2013-03-07 13:50:00,
2013-03-07 06:34:00,43.0,-99.9,-100.00,SSW,207,0.0,1.0,-999,-99.99,,,-99.99,,2013-03-07 14:34:00,
2013-03-07 06:43:00,43.0,-99.9,-100.00,SSW,207,0.0,1.0,-999,-99.99,,,-99.99,,2013-03-07 14:43:00,
2013-03-07 07:50:00,43.0,-99.9,-100.00,SW,224,3.0,3.0,-999,-99.99,,,-99.99,,2013-03-07 15:50:00,
2013-03-07 08:33:00,43.0,-99.9,-100.00,SW,224,3.0,3.0,-999,-99.99,,,-99.99,,2013-03-07 16:33:00,
2013-03-07 08:43:00,43.0,-99.9,-100.00,SW,224,3.0,3.0,-999,-99.99,,,-99.99,,2013-03-07 16:43:00,
2013-03-07 09:50:00,50.0,-99.9,-100.00,SW,224,4.0,4.0,-999,-99.99,,,-99.99,,2013-03-07 17:50:00,
2013-03-07 10:33:00,50.0,-99.9,-100.00,SW,224,4.0,4.0,-999,-99.99,,,-99.99,,2013-03-07 18:33:00,
2013-03-07 10:43:00,50.0,-99.9,-100.00,SW,224,4.0,4.0,-999,-99.99,,,-99.99,,2013-03-07 18:43:00,
2013-03-07 11:50:00,54.0,-99.9,-100.00,SSW,195,1.0,5.0,-999,-99.99,,,-99.99,,2013-03-07 19:50:00,
2013-03-07 12:34:00,54.0,-99.9,-100.00,SSW,195,1.0,5.0,-999,-99.99,,,-99.99,,2013-03-07 20:34:00,
2013-03-07 12:44:00,54.0,-99.9,-100.00,SSW,195,1.0,5.0,-999,-99.99,,,-99.99,,2013-03-07 20:44:00,
2013-03-07 13:50:00,52.0,-99.9,-100.00,SSW,201,4.0,6.0,-999,-99.99,,,-99.99,,2013-03-07 21:50:00,
2013-03-07 14:33:00,52.0,-99.9,-100.00,SSW,201,4.0,6.0,-999,-99.99,,,-99.99,,2013-03-07 22:33:00,
2013-03-07 14:44:00,52.0,-99.9,-100.00,SSW,201,4.0,6.0,-999,-99.99,,,-99.99,,2013-03-07 22:44:00,
2013-03-07 15:50:00,51.0,-99.9,-100.00,SW,223,4.0,5.0,-999,-99.99,,,-99.99,,2013-03-07 23:50:00,
2013-03-07 16:35:00,51.0,-99.9,-100.00,SW,223,4.0,5.0,-999,-99.99,,,-99.99,,2013-03-08 00:35:00,
2013-03-07 16:44:00,51.0,-99.9,-100.00,SW,223,4.0,5.0,-999,-99.99,,,-99.99,,2013-03-08 00:44:00,
2013-03-07 17:50:00,47.0,-99.9,-100.00,SSW,209,6.0,8.0,-999,-99.99,,,-99.99,,2013-03-08 01:50:00,
2013-03-07 18:32:00,47.0,-99.9,-100.00,SSW,209,6.0,8.0,-999,-99.99,,,-99.99,,2013-03-08 02:32:00,
2013-03-07 18:42:00,47.0,-99.9,-100.00,SSW,209,6.0,8.0,-999,-99.99,,,-99.99,,2013-03-08 02:42:00,
2013-03-07 19:50:00,45.0,-99.9,-100.00,South,175,3.0,4.0,-999,-99.99,,,-99.99,,2013-03-08 03:50:00,
2013-03-07 20:32:00,45.0,-99.9,-100.00,South,175,3.0,4.0,-999,-99.99,,,-99.99,,2013-03-08 04:32:00,
2013-03-07 20:43:00,45.0,-99.9,-100.00,South,175,3.0,4.0,-999,-99.99,,,-99.99,,2013-03-08 04:43:00,
2013-03-07 21:50:00,45.0,-99.9,-100.00,West,280,0.0,1.0,-999,-99.99,,,-99.99,,2013-03-08 05:50:00,
2013-03-07 22:32:00,45.0,-99.9,-100.00,West,280,0.0,1.0,-999,-99.99,,,-99.99,,2013-03-08 06:32:00,
2013-03-07 22:42:00,45.0,-99.9,-100.00,West,280,0.0,1.0,-999,-99.99,,,-99.99,,2013-03-08 06:42:00,
2013-03-07 23:50:00,45.0,-99.9,-100.00,WSW,252,1.0,3.0,-999,-99.99,,,-99.99,,2013-03-08 07:50:00,